sensor_id;sensor_type;location;lat;lon;timestamp;P1;durP1;ratioP1;P2;durP2;ratioP2
14698;SDS011;7439;50.804;4.602;2023-05-15T00:01:08;30.33;;;20.63;;
14698;SDS011;7439;50.804;4.602;2023-05-15T00:03:46;33.90;;;21.53;;
14698;SDS011;7439;50.804;4.602;2023-05-15T00:06:15;36.20;;;22.37;;
14698;SDS011;7439;50.804;4.602;2023-05-15T00:08:44;34.23;;;20.67;;
14698;SDS011;7439;50.804;4.602;2023-05-15T00:14:09;29.23;;;21.53;;
14698;SDS011;7439;50.804;4.602;2023-05-15T00:16:36;32.93;;;21.50;;
14698;SDS011;7439;50.804;4.602;2023-05-15T00:19:03;33.77;;;20.07;;
14698;SDS011;7439;50.804;4.602;2023-05-15T00:21:32;34.77;;;21.80;;
14698;SDS011;7439;50.804;4.602;2023-05-15T00:23:59;33.57;;;22.70;;
14698;SDS011;7439;50.804;4.602;2023-05-15T00:29:14;32.80;;;20.77;;
14698;SDS011;7439;50.804;4.602;2023-05-15T00:31:41;35.40;;;21.73;;
14698;SDS011;7439;50.804;4.602;2023-05-15T00:34:08;35.13;;;23.47;;
14698;SDS011;7439;50.804;4.602;2023-05-15T00:36:37;38.93;;;21.87;;
14698;SDS011;7439;50.804;4.602;2023-05-15T00:39:04;35.27;;;22.43;;
14698;SDS011;7439;50.804;4.602;2023-05-15T00:41:31;34.53;;;22.37;;
14698;SDS011;7439;50.804;4.602;2023-05-15T00:44:00;43.63;;;23.40;;
14698;SDS011;7439;50.804;4.602;2023-05-15T00:46:29;43.03;;;23.63;;
14698;SDS011;7439;50.804;4.602;2023-05-15T00:48:57;35.47;;;23.57;;
14698;SDS011;7439;50.804;4.602;2023-05-15T00:51:43;41.13;;;24.40;;
14698;SDS011;7439;50.804;4.602;2023-05-15T00:54:10;41.73;;;23.90;;
14698;SDS011;7439;50.804;4.602;2023-05-15T00:56:38;40.70;;;23.60;;
14698;SDS011;7439;50.804;4.602;2023-05-15T00:59:12;43.80;;;25.43;;
14698;SDS011;7439;50.804;4.602;2023-05-15T01:01:39;44.17;;;26.33;;
14698;SDS011;7439;50.804;4.602;2023-05-15T01:04:09;39.53;;;23.57;;
14698;SDS011;7439;50.804;4.602;2023-05-15T01:06:36;41.33;;;26.07;;
14698;SDS011;7439;50.804;4.602;2023-05-15T01:09:05;45.67;;;27.03;;
14698;SDS011;7439;50.804;4.602;2023-05-15T01:11:34;39.17;;;25.63;;
14698;SDS011;7439;50.804;4.602;2023-05-15T01:14:04;40.80;;;24.37;;
14698;SDS011;7439;50.804;4.602;2023-05-15T01:16:32;46.97;;;25.53;;
14698;SDS011;7439;50.804;4.602;2023-05-15T01:18:59;40.80;;;23.77;;
14698;SDS011;7439;50.804;4.602;2023-05-15T01:24:37;39.87;;;24.10;;
14698;SDS011;7439;50.804;4.602;2023-05-15T01:27:22;38.73;;;23.17;;
14698;SDS011;7439;50.804;4.602;2023-05-15T01:29:55;41.37;;;26.77;;
14698;SDS011;7439;50.804;4.602;2023-05-15T01:32:28;41.13;;;24.57;;
14698;SDS011;7439;50.804;4.602;2023-05-15T01:35:08;38.57;;;22.60;;
14698;SDS011;7439;50.804;4.602;2023-05-15T01:37:42;39.90;;;24.80;;
14698;SDS011;7439;50.804;4.602;2023-05-15T01:40:14;41.70;;;25.97;;
14698;SDS011;7439;50.804;4.602;2023-05-15T01:42:53;37.93;;;22.93;;
14698;SDS011;7439;50.804;4.602;2023-05-15T01:45:32;39.00;;;22.97;;
14698;SDS011;7439;50.804;4.602;2023-05-15T01:48:01;42.57;;;24.70;;
14698;SDS011;7439;50.804;4.602;2023-05-15T01:50:33;41.73;;;25.53;;
14698;SDS011;7439;50.804;4.602;2023-05-15T01:53:03;47.50;;;25.40;;
14698;SDS011;7439;50.804;4.602;2023-05-15T01:55:33;43.87;;;24.97;;
14698;SDS011;7439;50.804;4.602;2023-05-15T02:00:36;42.40;;;25.70;;
14698;SDS011;7439;50.804;4.602;2023-05-15T02:03:04;42.53;;;24.97;;
14698;SDS011;7439;50.804;4.602;2023-05-15T02:05:32;42.23;;;22.53;;
14698;SDS011;7439;50.804;4.602;2023-05-15T02:08:00;40.67;;;25.07;;
14698;SDS011;7439;50.804;4.602;2023-05-15T02:10:30;40.60;;;25.60;;
14698;SDS011;7439;50.804;4.602;2023-05-15T02:13:00;43.00;;;24.17;;
14698;SDS011;7439;50.804;4.602;2023-05-15T02:15:42;42.70;;;24.77;;
14698;SDS011;7439;50.804;4.602;2023-05-15T02:18:15;46.30;;;25.13;;
14698;SDS011;7439;50.804;4.602;2023-05-15T02:20:46;36.77;;;23.17;;
14698;SDS011;7439;50.804;4.602;2023-05-15T02:23:13;42.70;;;25.10;;
14698;SDS011;7439;50.804;4.602;2023-05-15T02:28:16;43.87;;;23.60;;
14698;SDS011;7439;50.804;4.602;2023-05-15T02:30:51;43.20;;;25.20;;
14698;SDS011;7439;50.804;4.602;2023-05-15T02:33:25;40.40;;;23.33;;
14698;SDS011;7439;50.804;4.602;2023-05-15T02:38:59;44.37;;;24.60;;
14698;SDS011;7439;50.804;4.602;2023-05-15T02:41:27;49.83;;;27.43;;
14698;SDS011;7439;50.804;4.602;2023-05-15T02:43:58;49.50;;;25.63;;
14698;SDS011;7439;50.804;4.602;2023-05-15T02:46:28;43.53;;;24.00;;
14698;SDS011;7439;50.804;4.602;2023-05-15T02:48:55;49.93;;;27.33;;
14698;SDS011;7439;50.804;4.602;2023-05-15T02:51:22;45.90;;;26.17;;
14698;SDS011;7439;50.804;4.602;2023-05-15T02:53:49;49.10;;;27.40;;
14698;SDS011;7439;50.804;4.602;2023-05-15T02:56:26;51.83;;;26.80;;
14698;SDS011;7439;50.804;4.602;2023-05-15T02:58:59;53.57;;;29.10;;
14698;SDS011;7439;50.804;4.602;2023-05-15T03:01:36;62.63;;;32.97;;
14698;SDS011;7439;50.804;4.602;2023-05-15T03:04:03;63.93;;;30.50;;
14698;SDS011;7439;50.804;4.602;2023-05-15T03:06:30;61.43;;;31.63;;
14698;SDS011;7439;50.804;4.602;2023-05-15T03:08:57;61.90;;;31.13;;
14698;SDS011;7439;50.804;4.602;2023-05-15T03:11:25;69.67;;;31.83;;
14698;SDS011;7439;50.804;4.602;2023-05-15T03:13:52;64.77;;;31.77;;
14698;SDS011;7439;50.804;4.602;2023-05-15T03:16:19;77.30;;;34.57;;
14698;SDS011;7439;50.804;4.602;2023-05-15T03:18:48;77.27;;;35.80;;
14698;SDS011;7439;50.804;4.602;2023-05-15T03:21:22;66.00;;;32.23;;
14698;SDS011;7439;50.804;4.602;2023-05-15T03:23:50;63.97;;;31.27;;
14698;SDS011;7439;50.804;4.602;2023-05-15T03:26:17;67.00;;;31.77;;
14698;SDS011;7439;50.804;4.602;2023-05-15T03:28:44;76.10;;;32.50;;
14698;SDS011;7439;50.804;4.602;2023-05-15T03:31:11;71.70;;;34.53;;
14698;SDS011;7439;50.804;4.602;2023-05-15T03:33:45;71.93;;;32.67;;
14698;SDS011;7439;50.804;4.602;2023-05-15T03:36:15;77.23;;;37.67;;
14698;SDS011;7439;50.804;4.602;2023-05-15T03:38:42;84.33;;;39.57;;
14698;SDS011;7439;50.804;4.602;2023-05-15T03:41:09;90.00;;;40.50;;
14698;SDS011;7439;50.804;4.602;2023-05-15T03:43:36;83.33;;;38.20;;
14698;SDS011;7439;50.804;4.602;2023-05-15T03:46:03;83.47;;;38.03;;
14698;SDS011;7439;50.804;4.602;2023-05-15T03:48:31;78.90;;;37.13;;
14698;SDS011;7439;50.804;4.602;2023-05-15T03:50:59;121.73;;;48.87;;
14698;SDS011;7439;50.804;4.602;2023-05-15T03:53:27;106.53;;;44.37;;
14698;SDS011;7439;50.804;4.602;2023-05-15T03:56:03;96.87;;;42.17;;
14698;SDS011;7439;50.804;4.602;2023-05-15T03:58:30;108.50;;;41.37;;
14698;SDS011;7439;50.804;4.602;2023-05-15T04:00:58;94.13;;;38.17;;
14698;SDS011;7439;50.804;4.602;2023-05-15T04:03:28;91.27;;;39.07;;
14698;SDS011;7439;50.804;4.602;2023-05-15T04:05:55;76.23;;;35.40;;
14698;SDS011;7439;50.804;4.602;2023-05-15T04:08:26;98.67;;;42.47;;
14698;SDS011;7439;50.804;4.602;2023-05-15T04:11:05;90.90;;;37.37;;
14698;SDS011;7439;50.804;4.602;2023-05-15T04:13:32;105.40;;;42.97;;
14698;SDS011;7439;50.804;4.602;2023-05-15T04:16:01;102.70;;;43.87;;
14698;SDS011;7439;50.804;4.602;2023-05-15T04:18:29;100.63;;;44.00;;
14698;SDS011;7439;50.804;4.602;2023-05-15T04:20:56;118.70;;;44.80;;
14698;SDS011;7439;50.804;4.602;2023-05-15T04:23:23;110.37;;;45.43;;
14698;SDS011;7439;50.804;4.602;2023-05-15T04:25:52;134.93;;;53.80;;
14698;SDS011;7439;50.804;4.602;2023-05-15T04:28:29;157.00;;;59.40;;
14698;SDS011;7439;50.804;4.602;2023-05-15T04:31:03;141.23;;;57.10;;
14698;SDS011;7439;50.804;4.602;2023-05-15T04:33:30;148.33;;;55.73;;
14698;SDS011;7439;50.804;4.602;2023-05-15T04:35:57;146.90;;;57.07;;
14698;SDS011;7439;50.804;4.602;2023-05-15T04:38:26;140.67;;;56.77;;
14698;SDS011;7439;50.804;4.602;2023-05-15T04:40:53;132.17;;;51.97;;
14698;SDS011;7439;50.804;4.602;2023-05-15T04:43:20;111.27;;;47.43;;
14698;SDS011;7439;50.804;4.602;2023-05-15T04:45:47;95.53;;;42.40;;
14698;SDS011;7439;50.804;4.602;2023-05-15T04:48:15;100.80;;;42.53;;
14698;SDS011;7439;50.804;4.602;2023-05-15T04:50:43;95.90;;;42.60;;
14698;SDS011;7439;50.804;4.602;2023-05-15T04:53:14;75.87;;;36.47;;
14698;SDS011;7439;50.804;4.602;2023-05-15T04:59:04;91.67;;;49.63;;
14698;SDS011;7439;50.804;4.602;2023-05-15T05:01:31;83.17;;;44.73;;
14698;SDS011;7439;50.804;4.602;2023-05-15T05:03:58;74.10;;;43.73;;
14698;SDS011;7439;50.804;4.602;2023-05-15T05:06:25;74.80;;;43.73;;
14698;SDS011;7439;50.804;4.602;2023-05-15T05:08:53;76.53;;;44.47;;
14698;SDS011;7439;50.804;4.602;2023-05-15T05:11:20;75.90;;;43.27;;
14698;SDS011;7439;50.804;4.602;2023-05-15T05:13:47;70.67;;;40.33;;
14698;SDS011;7439;50.804;4.602;2023-05-15T05:16:16;68.77;;;42.37;;
14698;SDS011;7439;50.804;4.602;2023-05-15T05:18:43;74.87;;;42.70;;
14698;SDS011;7439;50.804;4.602;2023-05-15T05:21:10;71.53;;;41.87;;
14698;SDS011;7439;50.804;4.602;2023-05-15T05:23:37;68.43;;;42.20;;
14698;SDS011;7439;50.804;4.602;2023-05-15T05:26:04;71.13;;;40.73;;
14698;SDS011;7439;50.804;4.602;2023-05-15T05:28:31;68.53;;;39.10;;
14698;SDS011;7439;50.804;4.602;2023-05-15T05:30:58;61.27;;;39.27;;
14698;SDS011;7439;50.804;4.602;2023-05-15T05:33:28;61.63;;;38.47;;
14698;SDS011;7439;50.804;4.602;2023-05-15T05:35:55;60.77;;;36.67;;
14698;SDS011;7439;50.804;4.602;2023-05-15T05:38:22;62.80;;;37.30;;
14698;SDS011;7439;50.804;4.602;2023-05-15T05:40:52;60.57;;;37.97;;
14698;SDS011;7439;50.804;4.602;2023-05-15T05:43:19;56.17;;;36.97;;
14698;SDS011;7439;50.804;4.602;2023-05-15T05:45:46;54.17;;;37.23;;
14698;SDS011;7439;50.804;4.602;2023-05-15T05:48:14;60.23;;;37.53;;
14698;SDS011;7439;50.804;4.602;2023-05-15T05:50:43;56.27;;;37.17;;
14698;SDS011;7439;50.804;4.602;2023-05-15T05:53:10;60.10;;;37.57;;
14698;SDS011;7439;50.804;4.602;2023-05-15T05:55:37;54.17;;;35.57;;
14698;SDS011;7439;50.804;4.602;2023-05-15T05:58:04;56.83;;;36.23;;
14698;SDS011;7439;50.804;4.602;2023-05-15T06:00:31;57.57;;;36.17;;
14698;SDS011;7439;50.804;4.602;2023-05-15T06:03:04;51.90;;;34.27;;
14698;SDS011;7439;50.804;4.602;2023-05-15T06:08:28;52.93;;;31.10;;
14698;SDS011;7439;50.804;4.602;2023-05-15T06:10:55;46.27;;;30.87;;
14698;SDS011;7439;50.804;4.602;2023-05-15T06:13:32;47.73;;;31.20;;
14698;SDS011;7439;50.804;4.602;2023-05-15T06:16:15;44.57;;;30.57;;
14698;SDS011;7439;50.804;4.602;2023-05-15T06:18:43;44.30;;;29.00;;
14698;SDS011;7439;50.804;4.602;2023-05-15T06:21:14;39.37;;;28.27;;
14698;SDS011;7439;50.804;4.602;2023-05-15T06:23:41;42.60;;;28.07;;
14698;SDS011;7439;50.804;4.602;2023-05-15T06:26:10;38.00;;;26.33;;
14698;SDS011;7439;50.804;4.602;2023-05-15T06:28:37;45.60;;;29.93;;
14698;SDS011;7439;50.804;4.602;2023-05-15T06:31:04;39.87;;;27.67;;
14698;SDS011;7439;50.804;4.602;2023-05-15T06:33:31;35.90;;;26.23;;
14698;SDS011;7439;50.804;4.602;2023-05-15T06:35:59;45.53;;;29.57;;
14698;SDS011;7439;50.804;4.602;2023-05-15T06:38:27;39.00;;;27.80;;
14698;SDS011;7439;50.804;4.602;2023-05-15T06:40:55;38.93;;;26.93;;
14698;SDS011;7439;50.804;4.602;2023-05-15T06:43:22;38.23;;;27.00;;
14698;SDS011;7439;50.804;4.602;2023-05-15T06:45:49;41.13;;;28.27;;
14698;SDS011;7439;50.804;4.602;2023-05-15T06:48:17;43.70;;;28.03;;
14698;SDS011;7439;50.804;4.602;2023-05-15T06:50:44;38.43;;;27.27;;
14698;SDS011;7439;50.804;4.602;2023-05-15T06:53:11;34.70;;;26.03;;
14698;SDS011;7439;50.804;4.602;2023-05-15T06:55:39;40.00;;;27.67;;
14698;SDS011;7439;50.804;4.602;2023-05-15T06:58:06;38.63;;;27.90;;
14698;SDS011;7439;50.804;4.602;2023-05-15T07:00:33;38.13;;;26.30;;
14698;SDS011;7439;50.804;4.602;2023-05-15T07:03:00;39.30;;;24.30;;
14698;SDS011;7439;50.804;4.602;2023-05-15T07:05:27;37.57;;;25.93;;
14698;SDS011;7439;50.804;4.602;2023-05-15T07:07:55;36.27;;;25.90;;
14698;SDS011;7439;50.804;4.602;2023-05-15T07:10:22;36.97;;;25.90;;
14698;SDS011;7439;50.804;4.602;2023-05-15T07:12:50;33.07;;;24.77;;
14698;SDS011;7439;50.804;4.602;2023-05-15T07:15:17;34.43;;;24.93;;
14698;SDS011;7439;50.804;4.602;2023-05-15T07:17:50;36.03;;;24.63;;
14698;SDS011;7439;50.804;4.602;2023-05-15T07:20:17;37.33;;;26.20;;
14698;SDS011;7439;50.804;4.602;2023-05-15T07:22:45;36.47;;;26.53;;
14698;SDS011;7439;50.804;4.602;2023-05-15T07:25:12;35.50;;;25.53;;
14698;SDS011;7439;50.804;4.602;2023-05-15T07:27:41;40.73;;;27.57;;
14698;SDS011;7439;50.804;4.602;2023-05-15T07:30:10;38.13;;;28.53;;
14698;SDS011;7439;50.804;4.602;2023-05-15T07:32:38;41.33;;;32.70;;
14698;SDS011;7439;50.804;4.602;2023-05-15T07:35:05;36.33;;;30.33;;
14698;SDS011;7439;50.804;4.602;2023-05-15T07:37:32;39.70;;;31.23;;
14698;SDS011;7439;50.804;4.602;2023-05-15T07:40:00;37.63;;;31.47;;
14698;SDS011;7439;50.804;4.602;2023-05-15T07:42:27;41.60;;;32.40;;
14698;SDS011;7439;50.804;4.602;2023-05-15T07:44:55;38.80;;;32.03;;
14698;SDS011;7439;50.804;4.602;2023-05-15T07:47:24;43.87;;;32.20;;
14698;SDS011;7439;50.804;4.602;2023-05-15T07:49:51;36.43;;;30.73;;
14698;SDS011;7439;50.804;4.602;2023-05-15T07:52:18;39.90;;;30.50;;
14698;SDS011;7439;50.804;4.602;2023-05-15T07:54:45;39.57;;;31.27;;
14698;SDS011;7439;50.804;4.602;2023-05-15T08:00:17;56.20;;;28.50;;
14698;SDS011;7439;50.804;4.602;2023-05-15T08:02:46;36.70;;;28.30;;
14698;SDS011;7439;50.804;4.602;2023-05-15T08:05:13;40.87;;;27.23;;
14698;SDS011;7439;50.804;4.602;2023-05-15T08:07:40;34.40;;;29.73;;
14698;SDS011;7439;50.804;4.602;2023-05-15T08:10:08;36.17;;;30.20;;
14698;SDS011;7439;50.804;4.602;2023-05-15T08:12:35;34.63;;;28.13;;
14698;SDS011;7439;50.804;4.602;2023-05-15T08:15:03;38.30;;;30.60;;
14698;SDS011;7439;50.804;4.602;2023-05-15T08:17:31;36.17;;;29.87;;
14698;SDS011;7439;50.804;4.602;2023-05-15T08:20:00;33.97;;;28.57;;
14698;SDS011;7439;50.804;4.602;2023-05-15T08:22:29;35.80;;;28.17;;
14698;SDS011;7439;50.804;4.602;2023-05-15T08:24:57;36.17;;;30.20;;
14698;SDS011;7439;50.804;4.602;2023-05-15T08:27:25;32.37;;;28.30;;
14698;SDS011;7439;50.804;4.602;2023-05-15T08:29:52;34.40;;;28.93;;
14698;SDS011;7439;50.804;4.602;2023-05-15T08:32:19;36.67;;;29.00;;
14698;SDS011;7439;50.804;4.602;2023-05-15T08:34:46;34.97;;;28.37;;
14698;SDS011;7439;50.804;4.602;2023-05-15T08:37:15;34.27;;;29.97;;
14698;SDS011;7439;50.804;4.602;2023-05-15T08:39:42;30.63;;;27.33;;
14698;SDS011;7439;50.804;4.602;2023-05-15T08:42:09;31.73;;;27.37;;
14698;SDS011;7439;50.804;4.602;2023-05-15T08:44:42;31.50;;;27.13;;
14698;SDS011;7439;50.804;4.602;2023-05-15T08:47:10;32.80;;;29.20;;
14698;SDS011;7439;50.804;4.602;2023-05-15T08:49:40;36.63;;;29.33;;
14698;SDS011;7439;50.804;4.602;2023-05-15T08:52:15;32.97;;;28.33;;
14698;SDS011;7439;50.804;4.602;2023-05-15T08:54:46;33.50;;;29.27;;
14698;SDS011;7439;50.804;4.602;2023-05-15T08:57:14;34.17;;;28.07;;
14698;SDS011;7439;50.804;4.602;2023-05-15T08:59:43;30.40;;;26.67;;
14698;SDS011;7439;50.804;4.602;2023-05-15T09:02:11;34.13;;;29.87;;
14698;SDS011;7439;50.804;4.602;2023-05-15T09:04:38;33.13;;;29.53;;
14698;SDS011;7439;50.804;4.602;2023-05-15T09:07:05;32.97;;;29.43;;
14698;SDS011;7439;50.804;4.602;2023-05-15T09:09:36;31.93;;;28.53;;
14698;SDS011;7439;50.804;4.602;2023-05-15T09:12:05;31.73;;;28.27;;
14698;SDS011;7439;50.804;4.602;2023-05-15T09:14:34;30.03;;;26.80;;
14698;SDS011;7439;50.804;4.602;2023-05-15T09:17:01;30.37;;;27.07;;
14698;SDS011;7439;50.804;4.602;2023-05-15T09:19:28;30.60;;;27.43;;
14698;SDS011;7439;50.804;4.602;2023-05-15T09:21:56;30.07;;;26.87;;
14698;SDS011;7439;50.804;4.602;2023-05-15T09:24:43;30.20;;;27.03;;
14698;SDS011;7439;50.804;4.602;2023-05-15T09:27:12;27.17;;;24.43;;
14698;SDS011;7439;50.804;4.602;2023-05-15T09:29:39;28.93;;;25.93;;
14698;SDS011;7439;50.804;4.602;2023-05-15T09:32:07;25.50;;;23.00;;
14698;SDS011;7439;50.804;4.602;2023-05-15T09:34:35;25.37;;;23.03;;
14698;SDS011;7439;50.804;4.602;2023-05-15T09:40:20;24.43;;;22.23;;
14698;SDS011;7439;50.804;4.602;2023-05-15T09:42:50;25.37;;;23.13;;
14698;SDS011;7439;50.804;4.602;2023-05-15T09:45:17;24.87;;;22.47;;
14698;SDS011;7439;50.804;4.602;2023-05-15T09:47:45;24.10;;;21.90;;
14698;SDS011;7439;50.804;4.602;2023-05-15T09:50:12;23.47;;;21.13;;
14698;SDS011;7439;50.804;4.602;2023-05-15T09:52:47;22.07;;;19.97;;
14698;SDS011;7439;50.804;4.602;2023-05-15T09:55:14;21.40;;;19.40;;
14698;SDS011;7439;50.804;4.602;2023-05-15T09:57:44;21.00;;;18.90;;
14698;SDS011;7439;50.804;4.602;2023-05-15T10:00:30;20.53;;;18.50;;
14698;SDS011;7439;50.804;4.602;2023-05-15T10:02:59;19.30;;;17.60;;
14698;SDS011;7439;50.804;4.602;2023-05-15T10:05:27;19.67;;;17.60;;
14698;SDS011;7439;50.804;4.602;2023-05-15T10:07:56;18.73;;;17.13;;
14698;SDS011;7439;50.804;4.602;2023-05-15T10:10:24;20.17;;;18.17;;
14698;SDS011;7439;50.804;4.602;2023-05-15T10:12:55;22.50;;;20.50;;
14698;SDS011;7439;50.804;4.602;2023-05-15T10:15:24;21.67;;;19.77;;
14698;SDS011;7439;50.804;4.602;2023-05-15T10:17:52;20.87;;;18.87;;
14698;SDS011;7439;50.804;4.602;2023-05-15T10:20:20;24.07;;;21.87;;
14698;SDS011;7439;50.804;4.602;2023-05-15T10:22:51;24.87;;;22.57;;
14698;SDS011;7439;50.804;4.602;2023-05-15T10:25:22;25.53;;;23.23;;
14698;SDS011;7439;50.804;4.602;2023-05-15T10:27:54;24.83;;;22.40;;
14698;SDS011;7439;50.804;4.602;2023-05-15T10:30:22;26.03;;;23.67;;
14698;SDS011;7439;50.804;4.602;2023-05-15T10:32:51;24.60;;;22.27;;
14698;SDS011;7439;50.804;4.602;2023-05-15T10:35:18;25.03;;;22.83;;
14698;SDS011;7439;50.804;4.602;2023-05-15T10:37:47;23.40;;;21.17;;
14698;SDS011;7439;50.804;4.602;2023-05-15T10:40:15;25.60;;;23.13;;
14698;SDS011;7439;50.804;4.602;2023-05-15T10:42:43;26.63;;;24.13;;
14698;SDS011;7439;50.804;4.602;2023-05-15T10:45:13;24.80;;;22.37;;
14698;SDS011;7439;50.804;4.602;2023-05-15T10:47:41;24.90;;;22.50;;
14698;SDS011;7439;50.804;4.602;2023-05-15T10:50:10;26.73;;;24.17;;
14698;SDS011;7439;50.804;4.602;2023-05-15T10:52:38;19.80;;;17.70;;
14698;SDS011;7439;50.804;4.602;2023-05-15T10:55:07;21.40;;;17.07;;
14698;SDS011;7439;50.804;4.602;2023-05-15T10:57:38;21.17;;;17.57;;
14698;SDS011;7439;50.804;4.602;2023-05-15T11:00:19;20.30;;;18.17;;
14698;SDS011;7439;50.804;4.602;2023-05-15T11:02:50;18.93;;;16.57;;
14698;SDS011;7439;50.804;4.602;2023-05-15T11:05:20;22.13;;;17.33;;
14698;SDS011;7439;50.804;4.602;2023-05-15T11:10:50;19.87;;;17.10;;
14698;SDS011;7439;50.804;4.602;2023-05-15T11:13:17;18.70;;;16.23;;
14698;SDS011;7439;50.804;4.602;2023-05-15T11:15:45;22.30;;;18.73;;
14698;SDS011;7439;50.804;4.602;2023-05-15T11:18:13;21.27;;;18.33;;
14698;SDS011;7439;50.804;4.602;2023-05-15T11:20:41;23.80;;;18.07;;
14698;SDS011;7439;50.804;4.602;2023-05-15T11:23:30;26.60;;;24.00;;
14698;SDS011;7439;50.804;4.602;2023-05-15T11:26:04;30.20;;;25.07;;
14698;SDS011;7439;50.804;4.602;2023-05-15T11:28:34;32.97;;;24.80;;
14698;SDS011;7439;50.804;4.602;2023-05-15T11:31:08;26.70;;;23.83;;
14698;SDS011;7439;50.804;4.602;2023-05-15T11:33:36;27.97;;;24.70;;
14698;SDS011;7439;50.804;4.602;2023-05-15T11:36:05;25.87;;;22.60;;
14698;SDS011;7439;50.804;4.602;2023-05-15T11:38:35;27.83;;;24.87;;
14698;SDS011;7439;50.804;4.602;2023-05-15T11:41:14;30.53;;;25.73;;
14698;SDS011;7439;50.804;4.602;2023-05-15T11:43:44;29.30;;;25.80;;
14698;SDS011;7439;50.804;4.602;2023-05-15T11:46:13;28.93;;;25.40;;
14698;SDS011;7439;50.804;4.602;2023-05-15T11:48:40;35.43;;;28.07;;
14698;SDS011;7439;50.804;4.602;2023-05-15T11:51:14;38.23;;;27.87;;
14698;SDS011;7439;50.804;4.602;2023-05-15T11:53:44;34.07;;;27.80;;
14698;SDS011;7439;50.804;4.602;2023-05-15T11:56:12;35.23;;;28.00;;
14698;SDS011;7439;50.804;4.602;2023-05-15T11:58:43;40.87;;;30.73;;
14698;SDS011;7439;50.804;4.602;2023-05-15T12:01:14;38.43;;;29.33;;
14698;SDS011;7439;50.804;4.602;2023-05-15T12:03:41;38.23;;;29.07;;
14698;SDS011;7439;50.804;4.602;2023-05-15T12:06:11;41.43;;;30.20;;
14698;SDS011;7439;50.804;4.602;2023-05-15T12:08:38;40.77;;;29.83;;
14698;SDS011;7439;50.804;4.602;2023-05-15T12:11:06;48.83;;;31.63;;
14698;SDS011;7439;50.804;4.602;2023-05-15T12:13:34;45.33;;;32.07;;
14698;SDS011;7439;50.804;4.602;2023-05-15T12:16:02;50.83;;;34.10;;
14698;SDS011;7439;50.804;4.602;2023-05-15T12:18:31;53.93;;;34.80;;
14698;SDS011;7439;50.804;4.602;2023-05-15T12:20:59;53.80;;;34.87;;
14698;SDS011;7439;50.804;4.602;2023-05-15T12:23:26;52.83;;;36.10;;
14698;SDS011;7439;50.804;4.602;2023-05-15T12:25:54;49.67;;;33.77;;
14698;SDS011;7439;50.804;4.602;2023-05-15T12:28:24;47.43;;;32.60;;
14698;SDS011;7439;50.804;4.602;2023-05-15T12:30:52;48.67;;;32.60;;
14698;SDS011;7439;50.804;4.602;2023-05-15T12:33:19;49.63;;;33.73;;
14698;SDS011;7439;50.804;4.602;2023-05-15T12:35:50;48.10;;;32.87;;
14698;SDS011;7439;50.804;4.602;2023-05-15T12:38:20;47.50;;;32.00;;
14698;SDS011;7439;50.804;4.602;2023-05-15T12:40:50;47.70;;;32.70;;
14698;SDS011;7439;50.804;4.602;2023-05-15T12:43:17;50.03;;;35.57;;
14698;SDS011;7439;50.804;4.602;2023-05-15T12:45:45;54.53;;;35.60;;
14698;SDS011;7439;50.804;4.602;2023-05-15T12:48:12;58.27;;;37.53;;
14698;SDS011;7439;50.804;4.602;2023-05-15T12:50:42;55.73;;;36.67;;
14698;SDS011;7439;50.804;4.602;2023-05-15T12:53:13;53.43;;;36.00;;
14698;SDS011;7439;50.804;4.602;2023-05-15T12:55:42;47.13;;;34.27;;
14698;SDS011;7439;50.804;4.602;2023-05-15T12:58:11;46.57;;;32.90;;
14698;SDS011;7439;50.804;4.602;2023-05-15T13:00:40;46.03;;;32.10;;
14698;SDS011;7439;50.804;4.602;2023-05-15T13:03:10;40.57;;;30.97;;
14698;SDS011;7439;50.804;4.602;2023-05-15T13:05:38;43.87;;;29.37;;
14698;SDS011;7439;50.804;4.602;2023-05-15T13:08:08;42.03;;;27.60;;
14698;SDS011;7439;50.804;4.602;2023-05-15T13:10:43;39.63;;;28.83;;
14698;SDS011;7439;50.804;4.602;2023-05-15T13:13:10;28.53;;;21.73;;
14698;SDS011;7439;50.804;4.602;2023-05-15T13:15:38;31.67;;;21.47;;
14698;SDS011;7439;50.804;4.602;2023-05-15T13:18:08;27.40;;;20.47;;
14698;SDS011;7439;50.804;4.602;2023-05-15T13:20:37;29.40;;;20.53;;
14698;SDS011;7439;50.804;4.602;2023-05-15T13:23:06;28.93;;;20.73;;
14698;SDS011;7439;50.804;4.602;2023-05-15T13:25:35;21.07;;;16.57;;
14698;SDS011;7439;50.804;4.602;2023-05-15T13:28:03;17.87;;;14.03;;
14698;SDS011;7439;50.804;4.602;2023-05-15T13:30:32;20.63;;;14.13;;
14698;SDS011;7439;50.804;4.602;2023-05-15T13:33:00;17.30;;;15.00;;
14698;SDS011;7439;50.804;4.602;2023-05-15T13:35:27;14.13;;;11.50;;
14698;SDS011;7439;50.804;4.602;2023-05-15T13:37:55;17.50;;;13.43;;
14698;SDS011;7439;50.804;4.602;2023-05-15T13:40:22;16.93;;;13.03;;
14698;SDS011;7439;50.804;4.602;2023-05-15T13:42:51;15.10;;;11.63;;
14698;SDS011;7439;50.804;4.602;2023-05-15T13:45:18;13.90;;;11.47;;
14698;SDS011;7439;50.804;4.602;2023-05-15T13:47:45;15.70;;;11.13;;
14698;SDS011;7439;50.804;4.602;2023-05-15T13:50:13;8.03;;;7.00;;
14698;SDS011;7439;50.804;4.602;2023-05-15T13:52:41;5.93;;;4.93;;
14698;SDS011;7439;50.804;4.602;2023-05-15T13:55:10;3.90;;;3.50;;
14698;SDS011;7439;50.804;4.602;2023-05-15T13:57:38;4.47;;;3.07;;
14698;SDS011;7439;50.804;4.602;2023-05-15T14:00:08;4.17;;;2.90;;
14698;SDS011;7439;50.804;4.602;2023-05-15T14:02:37;2.73;;;2.47;;
14698;SDS011;7439;50.804;4.602;2023-05-15T14:05:04;2.70;;;2.50;;
14698;SDS011;7439;50.804;4.602;2023-05-15T14:07:32;2.50;;;2.30;;
14698;SDS011;7439;50.804;4.602;2023-05-15T14:09:59;2.70;;;2.50;;
14698;SDS011;7439;50.804;4.602;2023-05-15T14:12:26;4.17;;;2.20;;
14698;SDS011;7439;50.804;4.602;2023-05-15T14:14:53;5.50;;;2.43;;
14698;SDS011;7439;50.804;4.602;2023-05-15T14:17:22;3.70;;;2.70;;
14698;SDS011;7439;50.804;4.602;2023-05-15T14:19:52;3.03;;;2.73;;
14698;SDS011;7439;50.804;4.602;2023-05-15T14:22:19;1.80;;;1.70;;
14698;SDS011;7439;50.804;4.602;2023-05-15T14:24:48;2.07;;;1.97;;
14698;SDS011;7439;50.804;4.602;2023-05-15T14:27:16;2.60;;;2.20;;
14698;SDS011;7439;50.804;4.602;2023-05-15T14:29:43;4.53;;;2.50;;
14698;SDS011;7439;50.804;4.602;2023-05-15T14:32:11;3.23;;;2.23;;
14698;SDS011;7439;50.804;4.602;2023-05-15T14:34:39;3.73;;;2.10;;
14698;SDS011;7439;50.804;4.602;2023-05-15T14:37:07;3.07;;;2.83;;
14698;SDS011;7439;50.804;4.602;2023-05-15T14:39:34;2.10;;;1.90;;
14698;SDS011;7439;50.804;4.602;2023-05-15T14:42:01;3.80;;;2.50;;
14698;SDS011;7439;50.804;4.602;2023-05-15T14:44:28;4.30;;;2.77;;
14698;SDS011;7439;50.804;4.602;2023-05-15T14:47:05;5.77;;;2.83;;
14698;SDS011;7439;50.804;4.602;2023-05-15T14:49:32;6.30;;;2.97;;
14698;SDS011;7439;50.804;4.602;2023-05-15T14:52:01;5.90;;;2.83;;
14698;SDS011;7439;50.804;4.602;2023-05-15T14:54:29;6.20;;;3.10;;
14698;SDS011;7439;50.804;4.602;2023-05-15T14:56:56;4.63;;;2.83;;
14698;SDS011;7439;50.804;4.602;2023-05-15T14:59:23;12.87;;;3.87;;
14698;SDS011;7439;50.804;4.602;2023-05-15T15:01:52;5.30;;;3.57;;
14698;SDS011;7439;50.804;4.602;2023-05-15T15:04:20;4.87;;;3.03;;
14698;SDS011;7439;50.804;4.602;2023-05-15T15:06:47;4.33;;;2.80;;
14698;SDS011;7439;50.804;4.602;2023-05-15T15:09:16;6.40;;;3.60;;
14698;SDS011;7439;50.804;4.602;2023-05-15T15:11:44;6.47;;;3.23;;
14698;SDS011;7439;50.804;4.602;2023-05-15T15:14:11;4.60;;;3.40;;
14698;SDS011;7439;50.804;4.602;2023-05-15T15:16:38;4.77;;;3.40;;
14698;SDS011;7439;50.804;4.602;2023-05-15T15:19:05;5.77;;;3.20;;